Time;durP1;ratioP1;P1;durP2;ratioP2;P2;SDS_P1;SDS_P2;PMS_P1;PMS_P2;Temp;Humidity;BMP_temperature;BMP_pressure;BME280_temperature;BME280_humidity;BME280_pressure;Samples;Min_cycle;Max_cycle;Signal;HPM_P1;HPM_P2
2024/04/04 00:01:11;;;;;;;7.97;2.47;;;15.10;96.70;;;;;;5057333;28;20063;-72
2024/04/04 00:03:39;;;;;;;6.82;1.90;;;15.10;96.70;;;;;;5070863;28;20044;-72
2024/04/04 00:06:09;;;;;;;5.30;2.15;;;15.20;96.70;;;;;;5074272;28;20044;-72
2024/04/04 00:08:39;;;;;;;4.57;1.88;;;15.20;96.70;;;;;;5059063;28;20119;-71
2024/04/04 00:11:11;;;;;;;7.95;2.15;;;15.20;96.70;;;;;;5058527;28;20052;-72
2024/04/04 00:13:43;;;;;;;6.72;1.55;;;15.20;96.70;;;;;;5057908;28;20044;-72
2024/04/04 00:16:10;;;;;;;4.88;1.45;;;15.30;96.70;;;;;;5073946;28;20059;-72
2024/04/04 00:18:39;;;;;;;4.05;1.35;;;15.20;96.70;;;;;;5057396;28;20077;-73
2024/04/04 00:21:07;;;;;;;5.18;1.83;;;15.20;96.70;;;;;;5057163;28;20055;-73
2024/04/04 00:23:37;;;;;;;7.63;1.10;;;15.20;96.70;;;;;;5058017;28;20129;-73
2024/04/04 00:26:07;;;;;;;5.85;1.60;;;15.20;96.70;;;;;;5074663;28;20119;-73
2024/04/04 00:28:38;;;;;;;8.02;1.60;;;15.10;96.70;;;;;;5067122;28;20045;-73
2024/04/04 00:31:09;;;;;;;10.52;2.03;;;15.10;96.70;;;;;;5037363;28;20245;-73
2024/04/04 00:33:36;;;;;;;4.93;1.40;;;15.00;96.70;;;;;;5053419;28;20221;-73
2024/04/04 00:36:04;;;;;;;4.88;1.40;;;15.00;96.70;;;;;;5036964;28;20192;-73
2024/04/04 00:38:34;;;;;;;3.85;1.40;;;14.90;96.70;;;;;;5051962;28;20044;-73
2024/04/04 00:41:02;;;;;;;7.75;1.88;;;14.90;96.70;;;;;;5036543;28;20067;-73
2024/04/04 00:43:29;;;;;;;6.47;1.70;;;14.90;96.70;;;;;;5036912;28;20147;-73
2024/04/04 00:45:59;;;;;;;5.85;1.58;;;14.80;96.70;;;;;;5053080;28;20048;-73
2024/04/04 00:48:29;;;;;;;5.72;1.50;;;14.80;96.70;;;;;;5037080;28;20142;-73
2024/04/04 00:50:58;;;;;;;6.60;1.45;;;14.70;96.70;;;;;;5034383;28;20045;-73
2024/04/04 00:53:27;;;;;;;4.13;1.08;;;14.60;96.70;;;;;;5035753;28;20049;-73
2024/04/04 00:55:55;;;;;;;5.55;1.58;;;14.60;96.70;;;;;;5044547;28;20044;-72
2024/04/04 00:58:23;;;;;;;4.20;1.45;;;14.60;96.70;;;;;;5024085;28;20091;-72
2024/04/04 01:00:52;;;;;;;5.55;1.27;;;14.60;96.70;;;;;;5031590;28;20110;-71
2024/04/04 01:03:22;;;;;;;4.47;1.35;;;14.50;96.70;;;;;;5050203;28;20143;-72
2024/04/04 01:05:51;;;;;;;4.32;1.38;;;14.50;96.70;;;;;;5037763;28;20155;-72
2024/04/04 01:08:22;;;;;;;6.40;1.38;;;14.50;96.70;;;;;;5041922;28;20051;-72
2024/04/04 01:10:50;;;;;;;7.90;2.45;;;14.50;96.70;;;;;;5027075;28;20052;-71
2024/04/04 01:13:19;;;;;;;4.88;1.38;;;14.40;96.70;;;;;;5038290;28;20405;-71
2024/04/04 01:15:47;;;;;;;6.53;1.80;;;14.30;96.70;;;;;;5033638;28;20116;-71
2024/04/04 01:18:20;;;;;;;6.18;1.55;;;14.30;96.70;;;;;;5049876;28;20074;-72
2024/04/04 01:20:48;;;;;;;4.90;1.23;;;14.30;96.70;;;;;;5049593;28;20049;-72
2024/04/04 01:23:16;;;;;;;5.47;1.63;;;14.20;96.70;;;;;;5048638;28;20059;-72
2024/04/04 01:25:45;;;;;;;6.78;1.25;;;14.30;96.70;;;;;;5032785;28;20056;-72
2024/04/04 01:28:12;;;;;;;6.20;1.55;;;14.30;96.70;;;;;;5033495;28;20428;-72
2024/04/04 01:30:40;;;;;;;3.78;1.40;;;14.20;96.70;;;;;;5072797;28;20512;-72
2024/04/04 01:33:10;;;;;;;3.97;1.50;;;14.20;96.70;;;;;;5069906;28;20040;-72
2024/04/04 01:35:37;;;;;;;3.72;1.00;;;14.20;96.70;;;;;;5071474;28;20043;-71
2024/04/04 01:38:05;;;;;;;6.93;1.33;;;14.10;96.70;;;;;;5073157;28;20067;-72
2024/04/04 01:40:34;;;;;;;4.60;0.85;;;14.20;96.70;;;;;;5053223;28;20481;-71
2024/04/04 01:43:04;;;;;;;3.15;1.10;;;14.10;96.70;;;;;;5056514;28;20043;-72
2024/04/04 01:45:32;;;;;;;3.15;1.02;;;14.10;96.70;;;;;;5085169;28;20039;-70
2024/04/04 01:48:03;;;;;;;2.80;0.98;;;14.10;96.70;;;;;;5055482;28;20070;-71
2024/04/04 01:50:30;;;;;;;4.50;1.35;;;14.10;96.70;;;;;;5072636;28;20047;-72
2024/04/04 01:53:00;;;;;;;5.45;1.25;;;14.00;96.70;;;;;;5051492;28;20055;-71
2024/04/04 01:55:29;;;;;;;3.58;0.95;;;14.00;96.70;;;;;;5055643;28;20067;-72
2024/04/04 01:57:57;;;;;;;3.22;1.00;;;13.90;96.70;;;;;;5059026;28;20093;-72
2024/04/04 02:00:30;;;;;;;7.20;1.23;;;13.90;96.70;;;;;;5055080;28;20051;-72
2024/04/04 02:02:59;;;;;;;6.75;1.50;;;13.90;96.70;;;;;;5055776;28;20048;-72
2024/04/04 02:05:27;;;;;;;3.95;0.95;;;13.90;96.70;;;;;;5072024;28;20043;-72
2024/04/04 02:07:54;;;;;;;4.45;1.42;;;13.90;96.70;;;;;;5057109;28;20063;-72
2024/04/04 02:10:22;;;;;;;4.07;1.10;;;13.90;96.70;;;;;;5055893;28;20479;-72
2024/04/04 02:12:50;;;;;;;2.90;0.75;;;13.90;96.70;;;;;;5087708;28;20044;-72
2024/04/04 02:15:17;;;;;;;8.73;1.75;;;13.90;96.70;;;;;;5055618;28;20039;-72
2024/04/04 02:17:47;;;;;;;2.60;0.98;;;14.00;96.70;;;;;;5055563;28;20069;-71
2024/04/04 02:20:16;;;;;;;3.42;0.80;;;14.00;96.70;;;;;;5052778;28;20492;-71
2024/04/04 02:22:44;;;;;;;8.68;1.42;;;14.00;96.70;;;;;;5066249;28;20116;-71
2024/04/04 02:25:14;;;;;;;4.55;1.10;;;14.00;96.70;;;;;;5087468;28;20043;-71
2024/04/04 02:27:43;;;;;;;5.20;1.30;;;14.00;96.70;;;;;;5071413;28;20031;-73
2024/04/04 02:30:12;;;;;;;4.35;1.88;;;14.00;96.70;;;;;;5054248;28;20059;-72
2024/04/04 02:32:39;;;;;;;4.25;0.95;;;14.00;96.70;;;;;;5071151;28;20066;-73
2024/04/04 02:35:10;;;;;;;4.47;1.20;;;14.10;96.70;;;;;;5057847;28;20039;-72
2024/04/04 02:37:37;;;;;;;4.60;0.75;;;14.10;96.70;;;;;;5070058;28;20043;-72
2024/04/04 02:40:05;;;;;;;3.00;0.90;;;14.20;96.70;;;;;;5070641;28;20649;-73
2024/04/04 02:42:34;;;;;;;5.20;1.00;;;14.10;96.70;;;;;;5071776;28;20571;-73
2024/04/04 02:45:02;;;;;;;5.15;1.05;;;14.00;96.70;;;;;;5071255;28;20138;-71
2024/04/04 02:47:31;;;;;;;4.13;1.15;;;14.00;96.70;;;;;;5070187;28;20043;-71
2024/04/04 02:49:59;;;;;;;5.13;1.25;;;14.00;96.70;;;;;;5070706;28;20035;-71
2024/04/04 02:52:30;;;;;;;6.65;1.13;;;14.10;96.70;;;;;;5068365;28;20044;-71
2024/04/04 02:54:57;;;;;;;3.75;1.05;;;14.10;96.70;;;;;;5054915;28;20142;-71
2024/04/04 02:57:24;;;;;;;2.97;0.80;;;14.10;96.70;;;;;;5073486;28;20044;-71
2024/04/04 02:59:51;;;;;;;5.43;1.10;;;14.10;96.70;;;;;;5070663;28;20138;-72
2024/04/04 03:02:18;;;;;;;3.92;1.40;;;14.10;96.70;;;;;;5058324;28;20055;-71
2024/04/04 03:04:48;;;;;;;5.22;0.90;;;14.20;96.70;;;;;;5057370;28;20519;-70
2024/04/04 03:07:16;;;;;;;3.58;1.08;;;14.10;96.70;;;;;;5070265;28;20084;-72
2024/04/04 03:09:48;;;;;;;3.03;1.02;;;14.10;96.70;;;;;;5069044;28;20071;-72
2024/04/04 03:12:17;;;;;;;3.00;1.00;;;14.10;96.70;;;;;;5054755;28;20059;-72
2024/04/04 03:14:45;;;;;;;7.80;1.27;;;14.10;96.70;;;;;;5053782;28;20095;-71
2024/04/04 03:17:13;;;;;;;3.67;0.75;;;14.00;96.70;;;;;;5069823;28;20043;-71
2024/04/04 03:19:41;;;;;;;4.07;1.15;;;14.10;96.70;;;;;;5069088;28;20104;-71
2024/04/04 03:22:09;;;;;;;5.95;1.40;;;14.10;96.70;;;;;;5070021;28;20040;-72
2024/04/04 03:24:37;;;;;;;2.75;1.20;;;14.10;96.70;;;;;;5054424;28;20050;-72
2024/04/04 03:27:06;;;;;;;6.75;1.40;;;14.10;96.70;;;;;;5054184;28;20118;-71
2024/04/04 03:29:33;;;;;;;5.00;1.30;;;14.10;96.70;;;;;;5052610;28;20099;-71
2024/04/04 03:32:01;;;;;;;4.45;0.98;;;14.10;96.70;;;;;;5027850;28;20477;-71
2024/04/04 03:34:29;;;;;;;3.33;0.90;;;14.00;96.70;;;;;;5030648;28;20051;-71
2024/04/04 03:36:57;;;;;;;4.47;1.17;;;14.00;96.70;;;;;;5031387;28;20055;-72
2024/04/04 03:39:24;;;;;;;4.97;1.20;;;14.00;96.70;;;;;;5030762;28;20185;-71
2024/04/04 03:41:51;;;;;;;4.57;1.00;;;14.00;96.70;;;;;;5048455;28;20131;-71
2024/04/04 03:44:20;;;;;;;5.40;0.77;;;14.00;96.70;;;;;;5030791;28;20063;-72
2024/04/04 03:46:47;;;;;;;5.32;1.00;;;14.10;96.70;;;;;;5030798;28;20143;-71
2024/04/04 03:49:15;;;;;;;3.08;1.02;;;14.00;96.70;;;;;;5035397;28;20715;-71
2024/04/04 03:51:44;;;;;;;4.07;0.93;;;14.00;96.70;;;;;;5039448;28;20371;-71
2024/04/04 03:54:12;;;;;;;6.20;1.25;;;14.00;96.70;;;;;;5045296;28;20048;-71
2024/04/04 03:56:42;;;;;;;6.65;1.40;;;14.00;96.70;;;;;;5030840;28;20048;-70
2024/04/04 03:59:09;;;;;;;6.78;1.00;;;14.00;96.70;;;;;;5029932;28;20041;-70
2024/04/04 04:01:38;;;;;;;6.90;1.35;;;14.00;96.70;;;;;;5028985;28;20040;-70
2024/04/04 04:04:08;;;;;;;3.50;1.10;;;14.00;96.70;;;;;;5044361;28;20055;-69
2024/04/04 04:06:36;;;;;;;3.53;1.00;;;14.00;96.70;;;;;;5029451;28;20052;-70
2024/04/04 04:09:04;;;;;;;2.78;0.80;;;14.10;96.70;;;;;;5029298;28;20124;-69
2024/04/04 04:11:32;;;;;;;3.80;1.10;;;14.00;96.70;;;;;;5043386;28;20049;-70
2024/04/04 04:13:59;;;;;;;6.65;1.10;;;13.90;96.70;;;;;;5027517;28;20124;-70
2024/04/04 04:16:27;;;;;;;6.30;1.27;;;14.00;96.70;;;;;;5061589;28;20144;-70
2024/04/04 04:18:56;;;;;;;3.78;1.10;;;14.00;96.70;;;;;;5047273;28;20086;-70
2024/04/04 04:21:27;;;;;;;6.25;1.77;;;14.10;96.70;;;;;;5047883;28;20057;-70
2024/04/04 04:23:57;;;;;;;5.55;1.42;;;14.00;96.70;;;;;;5030991;28;20520;-70
2024/04/04 04:26:26;;;;;;;5.60;1.50;;;14.00;96.70;;;;;;5030829;28;20040;-69
2024/04/04 04:28:54;;;;;;;5.50;1.40;;;14.00;96.70;;;;;;5031120;28;20090;-70
2024/04/04 04:31:26;;;;;;;3.58;1.02;;;14.00;96.70;;;;;;5048537;28;20114;-70
2024/04/04 04:33:55;;;;;;;4.68;1.15;;;14.00;96.70;;;;;;5034996;28;20048;-70
2024/04/04 04:36:24;;;;;;;2.35;0.80;;;14.00;96.70;;;;;;5057572;28;20048;-70
2024/04/04 04:38:53;;;;;;;2.65;0.80;;;13.90;96.70;;;;;;5034795;28;20139;-70
2024/04/04 04:41:22;;;;;;;5.95;1.33;;;13.90;96.70;;;;;;5050880;28;20076;-69
2024/04/04 04:43:50;;;;;;;5.32;1.17;;;13.90;96.70;;;;;;5050686;28;20048;-70
2024/04/04 04:46:18;;;;;;;8.38;0.95;;;13.90;96.70;;;;;;5030966;28;20055;-69
2024/04/04 04:48:47;;;;;;;3.28;0.88;;;13.90;96.70;;;;;;5050556;28;20123;-69
2024/04/04 04:51:17;;;;;;;2.78;1.10;;;14.00;96.70;;;;;;5032155;28;20136;-68
2024/04/04 04:53:44;;;;;;;4.63;0.95;;;14.10;96.70;;;;;;5049305;28;20595;-70
2024/04/04 04:56:12;;;;;;;3.10;0.70;;;14.10;96.70;;;;;;5024298;28;20049;-69
2024/04/04 04:58:42;;;;;;;5.93;1.00;;;14.00;96.70;;;;;;5034184;28;20045;-70
2024/04/04 05:01:10;;;;;;;8.00;0.80;;;14.00;96.70;;;;;;5031489;28;20641;-69
2024/04/04 05:03:38;;;;;;;3.80;1.20;;;14.00;96.70;;;;;;5032881;28;20505;-69
2024/04/04 05:06:07;;;;;;;6.03;1.05;;;14.00;96.70;;;;;;5050270;28;20095;-70
2024/04/04 05:08:37;;;;;;;4.13;1.02;;;14.00;96.70;;;;;;5047499;28;20409;-69
2024/04/04 05:11:04;;;;;;;5.38;0.82;;;14.00;96.70;;;;;;5033606;28;20040;-69
2024/04/04 05:13:32;;;;;;;4.10;1.25;;;14.10;96.70;;;;;;5034244;28;20131;-70
2024/04/04 05:15:59;;;;;;;4.63;1.20;;;14.10;96.70;;;;;;5033178;28;20064;-70
2024/04/04 05:18:27;;;;;;;4.93;0.90;;;14.10;96.70;;;;;;5026011;28;20049;-70
2024/04/04 05:20:59;;;;;;;4.78;1.20;;;14.10;96.70;;;;;;5032225;28;20072;-70
2024/04/04 05:23:30;;;;;;;4.05;1.17;;;14.00;96.70;;;;;;5066563;28;20657;-69
2024/04/04 05:26:00;;;;;;;6.22;1.40;;;14.00;96.70;;;;;;5047257;28;20122;-69
2024/04/04 05:28:30;;;;;;;5.63;1.42;;;14.00;96.70;;;;;;5054624;28;20052;-69
2024/04/04 05:31:01;;;;;;;3.85;1.40;;;13.90;96.70;;;;;;5058853;28;20469;-69
2024/04/04 05:33:29;;;;;;;4.18;0.88;;;13.90;96.70;;;;;;5089719;28;20139;-69
2024/04/04 05:35:56;;;;;;;3.90;1.13;;;13.90;96.70;;;;;;5057381;28;20047;-68
2024/04/04 05:38:24;;;;;;;4.75;1.17;;;13.80;96.70;;;;;;5072658;28;20043;-69
2024/04/04 05:40:52;;;;;;;1.67;0.75;;;13.70;96.70;;;;;;5071893;28;20084;-69
2024/04/04 05:43:21;;;;;;;4.05;0.90;;;13.70;96.70;;;;;;5053255;28;20056;-68
2024/04/04 05:45:49;;;;;;;6.05;1.58;;;13.70;96.70;;;;;;5072562;28;20047;-68
2024/04/04 05:48:19;;;;;;;3.05;0.90;;;13.70;96.70;;;;;;5054192;28;20060;-68
2024/04/04 05:50:47;;;;;;;4.93;1.30;;;13.80;96.70;;;;;;5072719;28;20427;-68
2024/04/04 05:53:14;;;;;;;5.53;1.05;;;13.80;96.70;;;;;;5053027;28;20048;-69
2024/04/04 05:55:44;;;;;;;4.82;1.00;;;13.80;96.70;;;;;;5053190;28;20444;-67
2024/04/04 05:58:12;;;;;;;4.57;1.67;;;13.90;96.70;;;;;;5056398;28;20043;-69
2024/04/04 06:00:43;;;;;;;3.67;1.05;;;13.90;96.70;;;;;;5056075;28;20047;-69
2024/04/04 06:03:11;;;;;;;5.82;1.27;;;14.00;96.70;;;;;;5090222;28;20044;-68
2024/04/04 06:05:39;;;;;;;8.27;2.28;;;14.10;96.70;;;;;;5055620;28;20048;-69
2024/04/04 06:08:08;;;;;;;7.05;1.50;;;14.20;96.70;;;;;;5072569;28;20050;-68
2024/04/04 06:10:36;;;;;;;6.05;1.60;;;14.30;96.70;;;;;;5072973;28;20054;-69
2024/04/04 06:13:05;;;;;;;6.75;1.40;;;14.30;96.70;;;;;;5056365;28;20044;-69
2024/04/04 06:15:32;;;;;;;6.28;1.50;;;14.30;96.70;;;;;;5058283;28;20036;-69
2024/04/04 06:18:02;;;;;;;5.00;1.60;;;14.40;96.70;;;;;;5056007;28;20047;-71
2024/04/04 06:20:30;;;;;;;7.20;1.75;;;14.30;96.70;;;;;;5072522;28;20044;-69
2024/04/04 06:22:57;;;;;;;5.68;1.52;;;14.40;96.70;;;;;;5056166;28;20047;-69
2024/04/04 06:25:27;;;;;;;6.72;1.50;;;14.50;96.70;;;;;;5073056;28;20108;-69
2024/04/04 06:27:55;;;;;;;5.22;1.73;;;14.50;96.70;;;;;;5071869;28;20047;-68
2024/04/04 06:30:23;;;;;;;3.88;1.60;;;14.60;96.70;;;;;;5056048;28;20055;-69
2024/04/04 06:32:51;;;;;;;3.53;1.50;;;14.60;96.70;;;;;;5052908;28;20064;-69
2024/04/04 06:35:21;;;;;;;6.18;1.60;;;14.70;96.70;;;;;;5072443;28;20078;-69
2024/04/04 06:37:48;;;;;;;7.43;1.58;;;14.70;96.70;;;;;;5068348;28;20066;-69
2024/04/04 06:40:16;;;;;;;4.30;1.25;;;14.70;96.70;;;;;;5055291;28;20058;-69
2024/04/04 06:42:44;;;;;;;3.95;1.45;;;14.80;96.70;;;;;;5071962;28;20075;-69
2024/04/04 06:45:12;;;;;;;7.72;1.67;;;14.80;96.70;;;;;;5055590;28;20051;-69
2024/04/04 06:47:53;;;;;;;5.60;1.60;;;14.80;96.70;;;;;;5055557;28;20513;-69
2024/04/04 06:50:25;;;;;;;4.65;1.20;;;14.90;96.70;;;;;;5053216;28;20063;-69
2024/04/04 06:52:55;;;;;;;6.18;1.30;;;14.80;96.70;;;;;;5053987;28;20356;-69
2024/04/04 06:55:24;;;;;;;5.35;1.42;;;14.80;96.70;;;;;;5055225;28;20089;-69
2024/04/04 06:57:55;;;;;;;5.60;1.83;;;14.80;96.70;;;;;;5054067;28;20043;-69
2024/04/04 07:00:22;;;;;;;7.00;1.80;;;14.80;96.70;;;;;;5073754;28;20110;-68
2024/04/04 07:02:51;;;;;;;5.53;1.60;;;14.80;96.70;;;;;;5055563;28;20066;-68
2024/04/04 07:05:29;;;;;;;5.95;1.48;;;14.80;96.70;;;;;;5071114;28;20055;-69
2024/04/04 07:07:58;;;;;;;4.78;1.38;;;14.80;96.70;;;;;;5072340;28;20142;-69
2024/04/04 07:10:26;;;;;;;6.38;1.52;;;14.90;96.70;;;;;;5055580;28;20508;-69
2024/04/04 07:12:54;;;;;;;5.57;1.92;;;14.90;96.70;;;;;;5070917;28;20063;-68
2024/04/04 07:15:24;;;;;;;5.05;1.65;;;14.90;96.70;;;;;;5055072;28;20052;-69
2024/04/04 07:17:53;;;;;;;4.80;1.58;;;15.00;96.70;;;;;;5054812;28;20051;-69
2024/04/04 07:20:23;;;;;;;6.10;1.95;;;15.00;96.70;;;;;;5054667;28;20055;-69
2024/04/04 07:22:52;;;;;;;6.22;1.80;;;15.00;96.70;;;;;;5055607;28;20138;-69
2024/04/04 07:25:19;;;;;;;5.22;1.70;;;15.00;96.70;;;;;;5070251;28;20070;-70
2024/04/04 07:27:49;;;;;;;3.65;1.70;;;15.00;96.70;;;;;;5060393;28;20044;-69
2024/04/04 07:30:16;;;;;;;4.82;1.63;;;15.10;96.70;;;;;;5053981;28;20051;-69
2024/04/04 07:32:48;;;;;;;6.80;2.42;;;15.20;96.70;;;;;;5072202;28;20547;-68
2024/04/04 07:35:16;;;;;;;7.22;2.67;;;15.20;96.70;;;;;;5055311;28;20058;-69
2024/04/04 07:37:44;;;;;;;5.03;2.15;;;15.20;96.70;;;;;;5072080;28;20043;-69
2024/04/04 07:40:13;;;;;;;7.03;1.85;;;15.30;96.70;;;;;;5055552;28;20054;-67
2024/04/04 07:42:40;;;;;;;8.13;2.17;;;15.30;96.70;;;;;;5053147;28;20051;-69
2024/04/04 07:45:10;;;;;;;8.00;2.17;;;15.30;96.70;;;;;;5057037;28;20153;-68
2024/04/04 07:47:38;;;;;;;7.10;2.10;;;15.30;96.70;;;;;;5054513;28;20502;-69
2024/04/04 07:50:09;;;;;;;8.30;2.25;;;15.30;96.70;;;;;;5053993;28;20047;-68
2024/04/04 07:52:37;;;;;;;8.90;1.85;;;15.30;96.70;;;;;;5054599;28;20039;-69
2024/04/04 07:55:06;;;;;;;7.55;2.92;;;15.30;96.70;;;;;;5052515;28;20048;-69
2024/04/04 07:57:34;;;;;;;5.57;1.85;;;15.40;96.70;;;;;;5066775;28;20048;-68
2024/04/04 08:00:03;;;;;;;14.48;2.55;;;15.40;96.70;;;;;;5051852;28;20098;-69
2024/04/04 08:02:33;;;;;;;7.30;2.03;;;15.40;96.70;;;;;;5071189;28;20052;-68
2024/04/04 08:05:00;;;;;;;4.85;1.83;;;15.40;96.70;;;;;;5056423;28;20107;-69
2024/04/04 08:07:35;;;;;;;8.38;2.35;;;15.50;96.70;;;;;;5074588;28;20389;-68
2024/04/04 08:10:05;;;;;;;8.07;2.45;;;15.50;96.70;;;;;;5092158;28;20051;-69
2024/04/04 08:12:36;;;;;;;8.25;3.42;;;15.60;96.70;;;;;;5058914;28;20139;-69
2024/04/04 08:15:05;;;;;;;7.78;3.40;;;15.70;96.70;;;;;;5064336;28;20051;-69
2024/04/04 08:17:33;;;;;;;13.57;6.05;;;15.70;96.70;;;;;;5072415;28;20082;-68
2024/04/04 08:20:02;;;;;;;15.95;6.72;;;15.70;96.70;;;;;;5074268;28;20484;-69
2024/04/04 08:22:29;;;;;;;9.38;4.07;;;15.70;96.70;;;;;;5074813;28;20104;-69
2024/04/04 08:24:57;;;;;;;12.10;4.68;;;15.70;96.70;;;;;;5058325;28;20075;-69
2024/04/04 08:27:27;;;;;;;14.48;5.95;;;15.70;96.70;;;;;;5078622;27;20047;-69
2024/04/04 08:29:54;;;;;;;9.82;4.65;;;15.80;96.70;;;;;;5067944;28;20059;-69
2024/04/04 08:32:22;;;;;;;19.67;7.93;;;15.80;96.70;;;;;;5069941;28;20471;-69
2024/04/04 08:34:50;;;;;;;14.43;6.35;;;15.90;96.70;;;;;;5055428;28;20121;-69
2024/04/04 08:37:19;;;;;;;15.27;6.97;;;15.90;96.70;;;;;;5073793;28;20120;-70
2024/04/04 08:39:47;;;;;;;13.68;5.68;;;15.90;96.70;;;;;;5053900;28;20047;-69
2024/04/04 08:42:16;;;;;;;9.88;4.00;;;16.00;96.70;;;;;;5093410;27;20046;-68
2024/04/04 08:44:48;;;;;;;10.75;3.45;;;16.00;96.70;;;;;;5057242;28;20052;-69
2024/04/04 08:47:18;;;;;;;11.25;3.78;;;16.00;96.70;;;;;;5075814;28;20044;-69
2024/04/04 08:49:47;;;;;;;9.18;3.28;;;16.00;96.70;;;;;;5056041;28;20040;-69
2024/04/04 08:52:15;;;;;;;10.38;3.78;;;16.10;96.70;;;;;;5058519;28;20120;-69
2024/04/04 08:54:44;;;;;;;11.35;3.80;;;16.10;96.70;;;;;;5053674;28;20093;-69
2024/04/04 08:57:17;;;;;;;10.02;3.30;;;16.10;96.70;;;;;;5074109;28;20508;-69
2024/04/04 08:59:57;;;;;;;12.48;4.15;;;16.30;96.70;;;;;;5080199;27;20035;-69
2024/04/04 09:02:26;;;;;;;12.63;4.47;;;16.30;96.70;;;;;;5073938;28;20036;-69
2024/04/04 09:05:04;;;;;;;8.10;3.08;;;16.40;96.70;;;;;;5057583;28;20051;-69
2024/04/04 09:07:35;;;;;;;11.18;3.88;;;16.40;96.70;;;;;;5070270;28;20071;-69
2024/04/04 09:10:03;;;;;;;11.68;4.15;;;16.50;96.70;;;;;;5057228;28;20231;-69
2024/04/04 09:12:32;;;;;;;12.25;3.78;;;16.60;96.70;;;;;;5056503;28;20444;-69
2024/04/04 09:15:03;;;;;;;12.93;3.42;;;16.80;96.70;;;;;;5072532;28;20063;-70
2024/04/04 09:17:30;;;;;;;10.85;3.10;;;16.90;96.70;;;;;;5075064;28;20420;-68
2024/04/04 09:19:59;;;;;;;6.60;2.63;;;17.00;96.70;;;;;;5071624;28;20047;-68
2024/04/04 09:22:26;;;;;;;8.45;2.75;;;17.00;96.70;;;;;;5055752;28;20043;-68
2024/04/04 09:24:57;;;;;;;8.55;2.42;;;17.00;96.70;;;;;;5056419;28;20074;-67
2024/04/04 09:27:28;;;;;;;10.15;2.90;;;17.10;96.70;;;;;;5071243;28;20052;-69
2024/04/04 09:29:57;;;;;;;7.00;2.47;;;17.20;96.70;;;;;;5071597;28;20052;-67
2024/04/04 09:32:27;;;;;;;9.63;2.88;;;17.30;96.70;;;;;;5073798;28;20539;-69
2024/04/04 09:34:56;;;;;;;7.93;3.00;;;17.50;96.70;;;;;;5064009;28;20048;-70
2024/04/04 09:37:25;;;;;;;9.30;2.60;;;17.60;96.70;;;;;;5057032;28;20070;-69
2024/04/04 09:39:52;;;;;;;8.65;2.58;;;17.70;96.70;;;;;;5065138;28;20043;-69
2024/04/04 09:42:23;;;;;;;9.48;2.50;;;17.80;96.70;;;;;;5053823;28;20097;-68
2024/04/04 09:44:51;;;;;;;6.47;2.08;;;18.00;96.70;;;;;;5056799;28;20626;-69
2024/04/04 09:47:20;;;;;;;8.52;2.38;;;18.00;96.70;;;;;;5053279;28;20071;-69
2024/04/04 09:49:50;;;;;;;8.23;2.65;;;18.20;96.70;;;;;;5072984;28;20043;-70
2024/04/04 09:52:18;;;;;;;6.57;2.60;;;18.40;96.70;;;;;;5056573;28;20039;-69
2024/04/04 09:54:45;;;;;;;7.53;2.40;;;18.50;96.70;;;;;;5072548;28;20112;-69
2024/04/04 09:57:13;;;;;;;5.45;2.58;;;18.40;96.70;;;;;;5066145;28;20070;-69
2024/04/04 09:59:40;;;;;;;10.10;2.70;;;18.30;96.70;;;;;;5072559;28;20048;-69
2024/04/04 10:02:08;;;;;;;9.60;2.42;;;18.50;96.70;;;;;;5055605;28;20134;-67
2024/04/04 10:04:37;;;;;;;9.00;2.35;;;18.50;96.70;;;;;;5089634;28;20047;-69
2024/04/04 10:07:07;;;;;;;6.70;2.33;;;18.60;96.70;;;;;;5073195;28;20043;-68
2024/04/04 10:09:41;;;;;;;8.80;2.10;;;18.70;96.70;;;;;;5056302;28;20043;-69
2024/04/04 10:12:12;;;;;;;12.52;2.53;;;18.80;96.70;;;;;;5055175;28;20803;-68
2024/04/04 10:14:50;;;;;;;9.55;2.22;;;18.90;96.70;;;;;;5062963;28;20056;-70
2024/04/04 10:17:18;;;;;;;6.43;2.38;;;18.90;96.70;;;;;;5056387;28;20469;-69
2024/04/04 10:19:49;;;;;;;6.95;2.20;;;19.00;96.70;;;;;;5056189;28;20071;-68
2024/04/04 10:22:19;;;;;;;7.75;2.00;;;19.10;96.70;;;;;;5072443;28;20048;-69
2024/04/04 10:24:47;;;;;;;5.88;2.20;;;19.10;96.70;;;;;;5072064;28;20191;-69
2024/04/04 10:27:15;;;;;;;7.78;2.92;;;19.30;96.70;;;;;;5055820;28;20504;-69
2024/04/04 10:29:42;;;;;;;11.07;2.63;;;19.40;96.70;;;;;;5072121;28;20063;-69
2024/04/04 10:32:10;;;;;;;9.88;2.97;;;19.50;96.70;;;;;;5055611;28;20062;-69
2024/04/04 10:34:38;;;;;;;9.60;3.47;;;19.50;96.70;;;;;;5071585;28;20539;-69
2024/04/04 10:37:07;;;;;;;12.93;3.15;;;19.60;96.70;;;;;;5056097;28;20043;-69
2024/04/04 10:39:36;;;;;;;10.30;3.08;;;19.90;96.70;;;;;;5071319;28;20051;-68
2024/04/04 10:42:06;;;;;;;11.15;3.50;;;19.90;96.70;;;;;;5055510;28;20051;-69
2024/04/04 10:44:37;;;;;;;12.68;3.95;;;19.90;96.70;;;;;;5089471;28;20124;-69
2024/04/04 10:47:05;;;;;;;8.73;3.63;;;19.80;96.70;;;;;;5072294;28;20047;-68
2024/04/04 10:49:34;;;;;;;13.80;4.05;;;19.80;96.70;;;;;;5055442;28;20047;-68
2024/04/04 10:52:02;;;;;;;6.68;3.00;;;20.00;96.70;;;;;;5071401;28;20447;-69
2024/04/04 10:54:30;;;;;;;8.40;2.10;;;20.10;96.70;;;;;;5071139;28;20047;-68
2024/04/04 10:57:01;;;;;;;6.47;1.55;;;20.20;96.70;;;;;;5055768;28;20047;-68
2024/04/04 10:59:29;;;;;;;5.07;2.13;;;20.50;96.70;;;;;;5071835;28;20650;-69
2024/04/04 11:02:02;;;;;;;5.13;1.70;;;20.30;96.70;;;;;;5070901;28;20047;-68
2024/04/04 11:04:31;;;;;;;6.70;2.17;;;20.00;96.70;;;;;;5071187;28;20155;-69
2024/04/04 11:06:59;;;;;;;4.10;1.70;;;20.10;96.70;;;;;;5055726;28;20112;-69
2024/04/04 11:09:28;;;;;;;5.03;1.75;;;20.20;96.70;;;;;;5072152;28;20377;-69
2024/04/04 11:11:56;;;;;;;9.63;1.85;;;20.10;96.70;;;;;;5058977;28;20081;-69
2024/04/04 11:14:27;;;;;;;4.05;1.58;;;20.00;96.70;;;;;;5055354;28;20067;-69
2024/04/04 11:16:55;;;;;;;6.05;1.80;;;20.00;96.70;;;;;;5070536;28;20083;-69
2024/04/04 11:19:23;;;;;;;7.90;2.45;;;20.20;96.70;;;;;;5046662;28;20055;-69
2024/04/04 11:21:52;;;;;;;8.52;2.63;;;20.20;96.70;;;;;;5087892;28;20557;-69
2024/04/04 11:24:21;;;;;;;6.55;2.13;;;20.30;96.70;;;;;;5054778;28;20499;-69
2024/04/04 11:26:50;;;;;;;7.00;2.38;;;20.50;96.70;;;;;;5055001;28;20047;-69
2024/04/04 11:29:20;;;;;;;7.70;2.13;;;20.60;96.70;;;;;;5074845;28;20379;-69
2024/04/04 11:31:53;;;;;;;6.20;1.88;;;20.60;96.70;;;;;;5048577;28;20514;-69
2024/04/04 11:34:21;;;;;;;5.40;2.10;;;20.60;96.70;;;;;;5031830;28;20055;-68
2024/04/04 11:36:51;;;;;;;6.47;2.03;;;20.40;96.70;;;;;;5048837;28;20126;-69
2024/04/04 11:39:20;;;;;;;4.90;1.50;;;20.50;96.70;;;;;;5062340;28;20463;-69
2024/04/04 11:41:50;;;;;;;5.10;1.50;;;20.40;96.70;;;;;;5047127;28;20513;-69
2024/04/04 11:44:18;;;;;;;8.95;2.00;;;20.20;96.70;;;;;;5030846;28;20123;-69
2024/04/04 11:46:45;;;;;;;7.95;1.80;;;20.10;96.70;;;;;;5031466;28;20506;-69
2024/04/04 11:49:17;;;;;;;5.22;1.42;;;20.00;96.70;;;;;;5047925;28;20048;-69
2024/04/04 11:51:45;;;;;;;6.38;1.80;;;20.00;96.70;;;;;;5032296;28;20069;-69
2024/04/04 11:54:16;;;;;;;7.05;2.28;;;20.20;96.70;;;;;;5048152;28;20052;-68
2024/04/04 11:56:45;;;;;;;7.20;1.77;;;20.30;96.70;;;;;;5030766;28;20126;-69
2024/04/04 11:59:12;;;;;;;3.97;1.20;;;20.60;96.70;;;;;;5048248;28;20122;-69
2024/04/04 12:01:40;;;;;;;5.85;1.50;;;20.70;96.70;;;;;;5064649;28;20045;-69
2024/04/04 12:04:09;;;;;;;5.65;1.73;;;20.70;96.70;;;;;;5047999;28;20048;-68
2024/04/04 12:06:38;;;;;;;5.47;1.38;;;20.70;96.70;;;;;;5048217;28;20132;-69
2024/04/04 12:09:09;;;;;;;5.78;2.17;;;21.00;96.70;;;;;;5047379;28;20048;-69
2024/04/04 12:11:38;;;;;;;4.63;1.75;;;21.10;96.70;;;;;;5047191;28;20114;-69
2024/04/04 12:14:07;;;;;;;7.70;1.73;;;21.20;96.70;;;;;;5047089;28;20055;-69
2024/04/04 12:16:37;;;;;;;8.98;2.25;;;21.10;96.70;;;;;;5030960;28;20518;-70
2024/04/04 12:21:53;;;;;;;5.55;1.90;;;20.60;96.70;;;;;;5048169;28;20056;-69
2024/04/04 12:24:22;;;;;;;4.38;1.40;;;20.60;96.70;;;;;;5048260;28;20513;-69
2024/04/04 12:26:54;;;;;;;5.90;1.63;;;21.00;96.70;;;;;;5031698;28;20382;-70
2024/04/04 12:29:21;;;;;;;4.35;1.52;;;21.20;96.70;;;;;;5057162;28;20090;-69
2024/04/04 12:31:49;;;;;;;7.22;1.90;;;21.20;96.70;;;;;;5032619;28;20446;-69
2024/04/04 12:34:17;;;;;;;7.10;2.00;;;21.10;96.70;;;;;;5058324;28;20578;-69
2024/04/04 12:36:45;;;;;;;9.27;1.75;;;20.70;96.70;;;;;;5049675;28;20055;-69
2024/04/04 12:39:14;;;;;;;7.13;1.80;;;20.90;96.70;;;;;;5052782;28;20363;-69
2024/04/04 12:41:45;;;;;;;6.35;2.00;;;21.10;96.70;;;;;;5050535;28;20126;-69
2024/04/04 12:44:12;;;;;;;6.75;1.40;;;21.20;96.70;;;;;;5033311;28;20052;-69
2024/04/04 12:46:40;;;;;;;6.53;1.50;;;21.00;96.70;;;;;;5033228;28;20048;-69
2024/04/04 12:49:10;;;;;;;5.85;1.67;;;20.80;96.70;;;;;;5036853;28;20048;-69
2024/04/04 12:51:38;;;;;;;4.80;1.08;;;20.90;96.70;;;;;;5051594;28;20055;-70
2024/04/04 12:54:07;;;;;;;5.75;1.55;;;21.20;96.70;;;;;;5043831;28;20055;-68
2024/04/04 12:56:36;;;;;;;4.10;1.40;;;21.30;96.70;;;;;;5059115;28;20083;-68